x

Lake Nipissing (45152) Wave Buoy

2:00am - Fri 1st Aug 2014 All times are CDT. -5 hours from GMT.

  • Sig Wave height 0.7ft
  • Peak Period 2s
  • Wind
    11mph, 13mph gusts
  • Sea Temp 68°f
  • Air Temp 62°f
  • Sea Pressure 1015.3mb
  • Lake Nipissing
  • Lake Nipissing

More Historic Weather Station data

Upgrade to MSW Pro to gain access to the past 30 days of data for over 8000 Wavebouys and Weather Stations around the globe.

Join Pro

Comparision Forecast

View Surf forecast
   
Fri 08/01 2:00am 0.7ft 2s 11 13 mph 1015.3mb 68f 62f
1:00am 0.7ft 2s 11 13 mph 1015mb 67f 63f
12:00am 0.7ft 2s 13 16 mph 1015.2mb 68f 63f
Thu 07/31 11:00pm 0.7ft 2s 13 18 mph 1015mb 67f 64f
10:00pm 0.7ft 2s 16 20 mph 1014.8mb 68f 64f
9:00pm 0.7ft 2s 16 18 mph 1014.5mb 68f 64f
8:00pm 0.7ft 2s 16 20 mph 1014.1mb 68f 65f
7:00pm 1ft 3s 13 16 mph 1013.7mb 68f 66f
5:00pm 1.3ft 3s 20 25 mph 1013.4mb 68f 67f
4:00pm 1.3ft 2s 20 25 mph 1013.1mb 68f 67f
3:00pm 1ft 3s 20 27 mph 1013.2mb 68f 66f
2:00pm 1.3ft 3s 18 25 mph 1013.5mb 68f 64f
1:00pm 1ft 2s 18 22 mph 1013mb 68f 64f
12:00pm 0.7ft 2s 16 20 mph 1013.3mb 68f 62f
11:00am 0.7ft 2s 16 20 mph 1013.7mb 68f 61f
10:00am 1ft 2s 16 20 mph 1013.9mb 68f 60f
9:00am 0.7ft 2s 18 22 mph 1013.6mb 68f 60f
8:00am 0.7ft 3s 11 13 mph 1013.8mb 68f 59f
7:00am 0.7ft 2s 11 13 mph 1013.8mb 68f 59f
6:00am 0.7ft 2s 9 13 mph 1013.5mb 68f 59f
5:00am 0.3ft 2s 11 13 mph 1013.4mb 68f 58f
4:00am 0.3ft 2s 9 13 mph 1013.3mb 68f 58f
3:00am 0.3ft 2s 13 16 mph 1013.1mb 68f 58f
2:00am 0.3ft 2s 11 13 mph 1013.1mb 68f 58f
1:00am 0.3ft 2s 13 16 mph 1013.5mb 68f 58f
12:00am 0.3ft 2s 11 13 mph 1013.6mb 68f 59f
Wed 07/30 11:00pm 0.3ft 2s 7
mph
1013.5mb 68f 60f
10:00pm 0.7ft 2s 9 11 mph 1013.8mb 69f 62f
9:00pm 0.7ft 2s 11 13 mph 1013.8mb 69f 62f
8:00pm 1ft 2s 13 16 mph 1013.3mb 69f 63f
7:00pm 0.7ft 2s 11 13 mph 1013.1mb 70f 65f
6:00pm 0.7ft 2s 7 13 mph 1013mb 70f 64f
5:00pm 0.7ft 2s 2 4 mph 1012.8mb 70f 66f
4:00pm 0.3ft 2s 4 9 mph 1012.5mb 70f 64f
3:00pm 0.3ft 2s 7 9 mph 1012.6mb 70f 66f
2:00pm 0.3ft 2s 7 9 mph 1012.8mb 70f 64f
1:00pm  -  3s 7 9 mph 1013.2mb 70f 63f
12:00pm  -  2s 4 7 mph 1013.3mb 70f 62f
11:00am  -  2s 7 9 mph 1013.7mb 69f 60f
10:00am 0.3ft 2s 4 9 mph 1014.1mb 68f 60f
9:00am 0.3ft 3s 7 9 mph 1013.8mb 68f 59f
8:00am  -  3s 7 11 mph 1013.6mb 68f 59f
7:00am 0.3ft 3s 4 7 mph 1013.6mb 68f 59f
6:00am 0.3ft 2s 7 9 mph 1013.1mb 68f 59f
5:00am 0.3ft 2s 7 11 mph 1012.6mb 68f 59f
4:00am 0.3ft 2s 4
mph
1012.4mb 68f 58f
3:00am 0.3ft 2s 7 9 mph 1012.5mb 68f 58f
2:00am 0.3ft 2s 11 13 mph 1012.2mb 68f 58f
1:00am 0.7ft 2s 9 11 mph 1012.3mb 68f 58f
12:00am 0.7ft 2s 11 13 mph 1012.2mb 68f 59f
Tue 07/29 11:00pm 0.7ft 2s 11 16 mph 1012.1mb 68f 60f
10:00pm 0.7ft 2s 11 16 mph 1012.2mb 68f 60f
9:00pm 0.3ft 2s 13 16 mph 1012.2mb 68f 61f
8:00pm 0.3ft 3s 9 11 mph 1012mb 68f 61f
7:00pm 0.3ft 3s 9 11 mph 1011.8mb 68f 62f
6:00pm 0.3ft 3s 9 11 mph 1011.6mb 68f 62f
5:00pm  -  3s 9 11 mph 1011.8mb 68f 61f
4:00pm 0.3ft 2s 9 11 mph 1011.9mb 68f 61f
3:00pm 0.3ft 2s 9 16 mph 1011.8mb 68f 61f
2:00pm 0.3ft 3s 9 11 mph 1011.3mb 68f 62f
1:00pm  -  3s 11 13 mph 1011mb 69f 62f
12:00pm 0.3ft 2s 9 11 mph 1011.6mb 69f 61f
11:00am 0.3ft 3s 9 13 mph 1011.4mb 69f 64f
10:00am  -  3s 9 13 mph 1011.4mb 69f 65f
9:00am  -  3s 7 9 mph 1011.9mb 68f 61f
8:00am  -  2s 7 9 mph 1011.9mb 68f 60f
7:00am 0.3ft 2s 7 9 mph 1011.8mb 68f 58f
6:00am 0.3ft 2s 7 9 mph 1011.5mb 68f 57f
5:00am 0.7ft 2s 4 9 mph 1011.4mb 68f 58f
4:00am 0.3ft 2s 9 13 mph 1011.2mb 68f 59f
3:00am 0.7ft 2s 9 11 mph 1010.9mb 68f 60f
2:00am 0.7ft 2s 9 11 mph 1011mb 68f 61f
1:00am  -   -  13
mph
1011.3mb - 61f
12:00am  -   -  9
mph
1011.2mb - 62f
Mon 07/28 11:00pm 0.7ft 2s 13 18 mph 1011.4mb 68f 62f
10:00pm 0.7ft 2s 13
mph
1011.4mb 68f 63f
9:00pm 0.7ft 2s 9 13 mph 1011.6mb 68f 64f
8:00pm 0.7ft 2s 11 16 mph 1011.3mb 68f 64f
7:00pm 0.7ft 2s 13 18 mph 1011.1mb 68f 64f
6:00pm 1ft 3s 13 18 mph 1011mb 68f 65f
5:00pm 1ft 2s 18 20 mph 1010.9mb 69f 64f
4:00pm 1ft 2s 16 22 mph 1010.8mb 69f 64f
3:00pm 1ft 3s 16 20 mph 1010.7mb 69f 64f
2:00pm 1ft 2s 16 18 mph 1010.7mb 69f 63f
12:00pm 1ft 3s 11 16 mph 1011mb 68f 61f
10:00am 1ft 3s 13 20 mph 1011.5mb 68f 57f
9:00am 1ft 2s 16 22 mph 1011.4mb 68f 55f